sensor_id;sensor_type;location;lat;lon;timestamp;temperature;humidity
13659;DHT22;6902;52.158;11.574;2022-12-18T00:02:21;-5.20;99.90
13659;DHT22;6902;52.158;11.574;2022-12-18T00:04:48;-5.30;99.90
13659;DHT22;6902;52.158;11.574;2022-12-18T00:07:17;-5.30;99.90
13659;DHT22;6902;52.158;11.574;2022-12-18T00:09:44;-5.30;99.90
13659;DHT22;6902;52.158;11.574;2022-12-18T00:12:12;-5.30;99.90
13659;DHT22;6902;52.158;11.574;2022-12-18T00:14:40;-5.30;99.90
13659;DHT22;6902;52.158;11.574;2022-12-18T00:17:07;-5.30;99.90
13659;DHT22;6902;52.158;11.574;2022-12-18T00:19:34;-5.30;99.90
13659;DHT22;6902;52.158;11.574;2022-12-18T00:22:01;-5.30;99.90
13659;DHT22;6902;52.158;11.574;2022-12-18T00:24:30;-5.30;99.90
13659;DHT22;6902;52.158;11.574;2022-12-18T00:26:57;-5.30;99.90
13659;DHT22;6902;52.158;11.574;2022-12-18T00:29:24;-5.40;99.90
13659;DHT22;6902;52.158;11.574;2022-12-18T00:31:51;-5.40;99.90
13659;DHT22;6902;52.158;11.574;2022-12-18T00:34:18;-5.40;99.90
13659;DHT22;6902;52.158;11.574;2022-12-18T00:36:47;-5.50;99.90
13659;DHT22;6902;52.158;11.574;2022-12-18T00:39:14;-5.50;99.90
13659;DHT22;6902;52.158;11.574;2022-12-18T00:41:45;-5.50;99.90
13659;DHT22;6902;52.158;11.574;2022-12-18T00:44:30;-5.50;99.90
13659;DHT22;6902;52.158;11.574;2022-12-18T00:46:57;-5.50;99.90
13659;DHT22;6902;52.158;11.574;2022-12-18T00:49:25;-5.50;99.90
13659;DHT22;6902;52.158;11.574;2022-12-18T00:51:52;-5.50;99.90
13659;DHT22;6902;52.158;11.574;2022-12-18T00:54:19;-5.50;99.90
13659;DHT22;6902;52.158;11.574;2022-12-18T00:56:47;-5.50;99.90
13659;DHT22;6902;52.158;11.574;2022-12-18T00:59:15;-5.50;99.90
13659;DHT22;6902;52.158;11.574;2022-12-18T01:01:42;-5.50;99.90
13659;DHT22;6902;52.158;11.574;2022-12-18T01:04:10;-5.60;99.90
13659;DHT22;6902;52.158;11.574;2022-12-18T01:06:37;-5.50;99.90
13659;DHT22;6902;52.158;11.574;2022-12-18T01:09:04;-5.50;99.90
13659;DHT22;6902;52.158;11.574;2022-12-18T01:11:31;-5.50;99.90
13659;DHT22;6902;52.158;11.574;2022-12-18T01:13:59;-5.60;99.90
13659;DHT22;6902;52.158;11.574;2022-12-18T01:16:26;-5.60;99.90
13659;DHT22;6902;52.158;11.574;2022-12-18T01:18:54;-5.50;99.90
13659;DHT22;6902;52.158;11.574;2022-12-18T01:21:22;-5.60;99.90
13659;DHT22;6902;52.158;11.574;2022-12-18T01:23:51;-5.50;99.90
13659;DHT22;6902;52.158;11.574;2022-12-18T01:26:19;-5.60;99.90
13659;DHT22;6902;52.158;11.574;2022-12-18T01:28:47;-5.60;99.90
13659;DHT22;6902;52.158;11.574;2022-12-18T01:31:18;-5.60;99.90
13659;DHT22;6902;52.158;11.574;2022-12-18T01:33:46;-5.60;99.90
13659;DHT22;6902;52.158;11.574;2022-12-18T01:36:18;-5.60;99.90
13659;DHT22;6902;52.158;11.574;2022-12-18T01:38:46;-5.60;99.90
13659;DHT22;6902;52.158;11.574;2022-12-18T01:41:23;-5.60;99.90
13659;DHT22;6902;52.158;11.574;2022-12-18T01:43:52;-5.70;99.90
13659;DHT22;6902;52.158;11.574;2022-12-18T01:46:22;-5.60;99.90
13659;DHT22;6902;52.158;11.574;2022-12-18T01:48:52;-5.60;99.90
13659;DHT22;6902;52.158;11.574;2022-12-18T01:51:20;-5.70;99.90
13659;DHT22;6902;52.158;11.574;2022-12-18T01:53:47;-5.60;99.90
13659;DHT22;6902;52.158;11.574;2022-12-18T01:56:17;-5.70;99.90
13659;DHT22;6902;52.158;11.574;2022-12-18T01:58:52;-5.70;99.90
13659;DHT22;6902;52.158;11.574;2022-12-18T02:01:23;-5.70;99.90
13659;DHT22;6902;52.158;11.574;2022-12-18T02:03:51;-5.80;99.90
13659;DHT22;6902;52.158;11.574;2022-12-18T02:06:21;-5.80;99.90
13659;DHT22;6902;52.158;11.574;2022-12-18T02:09:02;-5.90;99.90
13659;DHT22;6902;52.158;11.574;2022-12-18T02:11:41;-5.90;99.90
13659;DHT22;6902;52.158;11.574;2022-12-18T02:14:18;-5.90;99.90
13659;DHT22;6902;52.158;11.574;2022-12-18T02:16:51;-5.90;99.90
13659;DHT22;6902;52.158;11.574;2022-12-18T02:19:40;-5.90;99.90
13659;DHT22;6902;52.158;11.574;2022-12-18T02:22:26;-5.90;99.90
13659;DHT22;6902;52.158;11.574;2022-12-18T02:25:01;-5.90;99.90
13659;DHT22;6902;52.158;11.574;2022-12-18T02:27:34;-6.00;99.90
13659;DHT22;6902;52.158;11.574;2022-12-18T02:30:04;-5.90;99.90
13659;DHT22;6902;52.158;11.574;2022-12-18T02:32:34;-5.90;99.90
13659;DHT22;6902;52.158;11.574;2022-12-18T02:35:05;-5.90;99.90
13659;DHT22;6902;52.158;11.574;2022-12-18T02:37:34;-5.90;99.90
13659;DHT22;6902;52.158;11.574;2022-12-18T02:40:06;-5.90;99.90
13659;DHT22;6902;52.158;11.574;2022-12-18T02:42:37;-5.90;99.90
13659;DHT22;6902;52.158;11.574;2022-12-18T02:45:07;-5.90;99.90
13659;DHT22;6902;52.158;11.574;2022-12-18T02:47:37;-5.90;99.90
13659;DHT22;6902;52.158;11.574;2022-12-18T02:50:12;-5.90;99.90
13659;DHT22;6902;52.158;11.574;2022-12-18T02:52:46;-5.90;99.90
13659;DHT22;6902;52.158;11.574;2022-12-18T02:55:28;-5.90;99.90
13659;DHT22;6902;52.158;11.574;2022-12-18T02:58:06;-6.00;99.90
13659;DHT22;6902;52.158;11.574;2022-12-18T03:00:41;-5.90;99.90
13659;DHT22;6902;52.158;11.574;2022-12-18T03:03:15;-6.00;99.90
13659;DHT22;6902;52.158;11.574;2022-12-18T03:05:47;-6.00;99.90
13659;DHT22;6902;52.158;11.574;2022-12-18T03:08:20;-6.00;99.90
13659;DHT22;6902;52.158;11.574;2022-12-18T03:10:55;-6.10;99.90
13659;DHT22;6902;52.158;11.574;2022-12-18T03:13:37;-6.10;99.90
13659;DHT22;6902;52.158;11.574;2022-12-18T03:16:12;-6.10;99.90
13659;DHT22;6902;52.158;11.574;2022-12-18T03:18:46;-6.00;99.90
13659;DHT22;6902;52.158;11.574;2022-12-18T03:21:15;-6.00;99.90
13659;DHT22;6902;52.158;11.574;2022-12-18T03:23:48;-6.00;99.90
13659;DHT22;6902;52.158;11.574;2022-12-18T03:26:19;-5.90;99.90
13659;DHT22;6902;52.158;11.574;2022-12-18T03:28:54;-5.90;99.90
13659;DHT22;6902;52.158;11.574;2022-12-18T03:31:26;-6.00;99.90
13659;DHT22;6902;52.158;11.574;2022-12-18T03:33:57;-5.90;99.90
13659;DHT22;6902;52.158;11.574;2022-12-18T03:36:32;-6.00;99.90
13659;DHT22;6902;52.158;11.574;2022-12-18T03:39:00;-6.00;99.90
13659;DHT22;6902;52.158;11.574;2022-12-18T03:41:31;-6.10;99.90
13659;DHT22;6902;52.158;11.574;2022-12-18T03:44:22;-6.10;99.90
13659;DHT22;6902;52.158;11.574;2022-12-18T03:46:59;-6.10;99.90
13659;DHT22;6902;52.158;11.574;2022-12-18T03:49:34;-6.00;99.90
13659;DHT22;6902;52.158;11.574;2022-12-18T03:52:08;-6.00;99.90
13659;DHT22;6902;52.158;11.574;2022-12-18T03:54:39;-6.00;99.90
13659;DHT22;6902;52.158;11.574;2022-12-18T03:57:15;-6.00;99.90
13659;DHT22;6902;52.158;11.574;2022-12-18T03:59:45;-6.00;99.90
13659;DHT22;6902;52.158;11.574;2022-12-18T04:02:16;-6.00;99.90
13659;DHT22;6902;52.158;11.574;2022-12-18T04:04:47;-5.90;99.90
13659;DHT22;6902;52.158;11.574;2022-12-18T04:07:17;-6.00;99.90
13659;DHT22;6902;52.158;11.574;2022-12-18T04:09:46;-6.00;99.90
13659;DHT22;6902;52.158;11.574;2022-12-18T04:12:14;-6.00;99.90
13659;DHT22;6902;52.158;11.574;2022-12-18T04:14:41;-6.00;99.90
13659;DHT22;6902;52.158;11.574;2022-12-18T04:17:10;-6.00;99.90
13659;DHT22;6902;52.158;11.574;2022-12-18T04:19:37;-6.00;99.90
13659;DHT22;6902;52.158;11.574;2022-12-18T04:22:04;-6.00;99.90
13659;DHT22;6902;52.158;11.574;2022-12-18T04:24:38;-6.00;99.90
13659;DHT22;6902;52.158;11.574;2022-12-18T04:27:16;-6.00;99.90
13659;DHT22;6902;52.158;11.574;2022-12-18T04:29:47;-6.00;99.90
13659;DHT22;6902;52.158;11.574;2022-12-18T04:32:16;-6.00;99.90
13659;DHT22;6902;52.158;11.574;2022-12-18T04:34:44;-6.00;99.90
13659;DHT22;6902;52.158;11.574;2022-12-18T04:37:11;-6.00;99.90
13659;DHT22;6902;52.158;11.574;2022-12-18T04:39:38;-6.00;99.90
13659;DHT22;6902;52.158;11.574;2022-12-18T04:42:12;-6.10;99.90
13659;DHT22;6902;52.158;11.574;2022-12-18T04:44:39;-6.00;99.90
13659;DHT22;6902;52.158;11.574;2022-12-18T04:47:06;-6.00;99.90
13659;DHT22;6902;52.158;11.574;2022-12-18T04:49:34;-5.90;99.90
13659;DHT22;6902;52.158;11.574;2022-12-18T04:52:01;-5.90;99.90
13659;DHT22;6902;52.158;11.574;2022-12-18T04:54:28;-6.00;99.90
13659;DHT22;6902;52.158;11.574;2022-12-18T04:56:55;-6.00;99.90
13659;DHT22;6902;52.158;11.574;2022-12-18T04:59:22;-6.10;99.90
13659;DHT22;6902;52.158;11.574;2022-12-18T05:01:49;-6.20;99.90
13659;DHT22;6902;52.158;11.574;2022-12-18T05:04:16;-6.20;99.90
13659;DHT22;6902;52.158;11.574;2022-12-18T05:06:44;-6.20;99.90
13659;DHT22;6902;52.158;11.574;2022-12-18T05:09:11;-6.20;99.90
13659;DHT22;6902;52.158;11.574;2022-12-18T05:11:38;-6.20;99.90
13659;DHT22;6902;52.158;11.574;2022-12-18T05:14:05;-6.20;99.90
13659;DHT22;6902;52.158;11.574;2022-12-18T05:16:32;-6.20;99.90
13659;DHT22;6902;52.158;11.574;2022-12-18T05:18:59;-6.20;99.90
13659;DHT22;6902;52.158;11.574;2022-12-18T05:21:26;-6.10;99.90
13659;DHT22;6902;52.158;11.574;2022-12-18T05:23:54;-6.10;99.90
13659;DHT22;6902;52.158;11.574;2022-12-18T05:26:21;-6.10;99.90
13659;DHT22;6902;52.158;11.574;2022-12-18T05:28:49;-6.00;99.90
13659;DHT22;6902;52.158;11.574;2022-12-18T05:31:16;-6.00;99.90
13659;DHT22;6902;52.158;11.574;2022-12-18T05:33:43;-6.00;99.90
13659;DHT22;6902;52.158;11.574;2022-12-18T05:36:10;-6.00;99.90
13659;DHT22;6902;52.158;11.574;2022-12-18T05:38:38;-6.00;99.90
13659;DHT22;6902;52.158;11.574;2022-12-18T05:41:07;-6.00;99.90
13659;DHT22;6902;52.158;11.574;2022-12-18T05:43:36;-6.00;99.90
13659;DHT22;6902;52.158;11.574;2022-12-18T05:46:04;-6.00;99.90
13659;DHT22;6902;52.158;11.574;2022-12-18T05:48:32;-6.00;99.90
13659;DHT22;6902;52.158;11.574;2022-12-18T05:51:05;-6.10;99.90
13659;DHT22;6902;52.158;11.574;2022-12-18T05:53:32;-6.10;99.90
13659;DHT22;6902;52.158;11.574;2022-12-18T05:56:00;-6.10;99.90
13659;DHT22;6902;52.158;11.574;2022-12-18T05:58:30;-6.10;99.90
13659;DHT22;6902;52.158;11.574;2022-12-18T06:01:05;-6.10;99.90
13659;DHT22;6902;52.158;11.574;2022-12-18T06:03:32;-6.10;99.90
13659;DHT22;6902;52.158;11.574;2022-12-18T06:05:59;-6.10;99.90
13659;DHT22;6902;52.158;11.574;2022-12-18T06:08:26;-6.20;99.90
13659;DHT22;6902;52.158;11.574;2022-12-18T06:10:53;-6.20;99.90
13659;DHT22;6902;52.158;11.574;2022-12-18T06:13:20;-6.20;99.90
13659;DHT22;6902;52.158;11.574;2022-12-18T06:15:49;-6.20;99.90
13659;DHT22;6902;52.158;11.574;2022-12-18T06:18:16;-6.20;99.90
13659;DHT22;6902;52.158;11.574;2022-12-18T06:20:43;-6.20;99.90
13659;DHT22;6902;52.158;11.574;2022-12-18T06:23:10;-6.20;99.90
13659;DHT22;6902;52.158;11.574;2022-12-18T06:25:38;-6.20;99.90
13659;DHT22;6902;52.158;11.574;2022-12-18T06:28:05;-6.20;99.90
13659;DHT22;6902;52.158;11.574;2022-12-18T06:30:32;-6.20;99.90
13659;DHT22;6902;52.158;11.574;2022-12-18T06:33:00;-6.20;99.90
13659;DHT22;6902;52.158;11.574;2022-12-18T06:35:27;-6.30;99.90
13659;DHT22;6902;52.158;11.574;2022-12-18T06:37:54;-6.30;99.90
13659;DHT22;6902;52.158;11.574;2022-12-18T06:40:21;-6.30;99.90
13659;DHT22;6902;52.158;11.574;2022-12-18T06:42:48;-6.30;99.90
13659;DHT22;6902;52.158;11.574;2022-12-18T06:45:15;-6.40;99.90
13659;DHT22;6902;52.158;11.574;2022-12-18T06:47:43;-6.40;99.90
13659;DHT22;6902;52.158;11.574;2022-12-18T06:50:12;-6.50;99.90
13659;DHT22;6902;52.158;11.574;2022-12-18T06:52:39;-6.40;99.90
13659;DHT22;6902;52.158;11.574;2022-12-18T06:55:07;-6.40;99.90
13659;DHT22;6902;52.158;11.574;2022-12-18T06:57:34;-6.40;99.90
13659;DHT22;6902;52.158;11.574;2022-12-18T07:00:02;-6.40;99.90
13659;DHT22;6902;52.158;11.574;2022-12-18T07:02:29;-6.40;99.90
13659;DHT22;6902;52.158;11.574;2022-12-18T07:04:56;-6.50;99.90
13659;DHT22;6902;52.158;11.574;2022-12-18T07:07:24;-6.50;99.90
13659;DHT22;6902;52.158;11.574;2022-12-18T07:09:51;-6.50;99.90
13659;DHT22;6902;52.158;11.574;2022-12-18T07:12:18;-6.50;99.90
13659;DHT22;6902;52.158;11.574;2022-12-18T07:14:45;-6.50;99.90
13659;DHT22;6902;52.158;11.574;2022-12-18T07:17:12;-6.50;99.90
13659;DHT22;6902;52.158;11.574;2022-12-18T07:19:39;-6.50;99.90
13659;DHT22;6902;52.158;11.574;2022-12-18T07:22:06;-6.50;99.90
13659;DHT22;6902;52.158;11.574;2022-12-18T07:24:35;-6.50;99.90
13659;DHT22;6902;52.158;11.574;2022-12-18T07:27:03;-6.50;99.90
13659;DHT22;6902;52.158;11.574;2022-12-18T07:29:29;-6.50;99.90
13659;DHT22;6902;52.158;11.574;2022-12-18T07:31:56;-6.50;99.90
13659;DHT22;6902;52.158;11.574;2022-12-18T07:34:23;-6.50;99.90
13659;DHT22;6902;52.158;11.574;2022-12-18T07:36:50;-6.50;99.90
13659;DHT22;6902;52.158;11.574;2022-12-18T07:39:17;-6.50;99.90
13659;DHT22;6902;52.158;11.574;2022-12-18T07:41:46;-6.50;99.90
13659;DHT22;6902;52.158;11.574;2022-12-18T07:44:33;-6.40;99.90
13659;DHT22;6902;52.158;11.574;2022-12-18T07:47:00;-6.40;99.90
13659;DHT22;6902;52.158;11.574;2022-12-18T07:49:27;-6.40;99.90
13659;DHT22;6902;52.158;11.574;2022-12-18T07:51:55;-6.30;99.90
13659;DHT22;6902;52.158;11.574;2022-12-18T07:54:22;-6.30;99.90
13659;DHT22;6902;52.158;11.574;2022-12-18T07:56:51;-6.30;99.90
13659;DHT22;6902;52.158;11.574;2022-12-18T07:59:19;-6.30;99.90
13659;DHT22;6902;52.158;11.574;2022-12-18T08:01:46;-6.30;99.90
13659;DHT22;6902;52.158;11.574;2022-12-18T08:04:13;-6.30;99.90
13659;DHT22;6902;52.158;11.574;2022-12-18T08:06:40;-6.40;99.90
13659;DHT22;6902;52.158;11.574;2022-12-18T08:09:09;-6.40;99.90
13659;DHT22;6902;52.158;11.574;2022-12-18T08:11:36;-6.40;99.90
13659;DHT22;6902;52.158;11.574;2022-12-18T08:14:05;-6.40;99.90
13659;DHT22;6902;52.158;11.574;2022-12-18T08:16:32;-6.30;99.90
13659;DHT22;6902;52.158;11.574;2022-12-18T08:19:00;-6.30;99.90
13659;DHT22;6902;52.158;11.574;2022-12-18T08:21:28;-6.20;99.90
13659;DHT22;6902;52.158;11.574;2022-12-18T08:23:57;-6.20;99.90
13659;DHT22;6902;52.158;11.574;2022-12-18T08:26:26;-6.10;99.90
13659;DHT22;6902;52.158;11.574;2022-12-18T08:28:54;-6.10;99.90
13659;DHT22;6902;52.158;11.574;2022-12-18T08:31:23;-6.00;99.90
13659;DHT22;6902;52.158;11.574;2022-12-18T08:33:50;-6.00;99.90
13659;DHT22;6902;52.158;11.574;2022-12-18T08:36:18;-6.00;99.90
13659;DHT22;6902;52.158;11.574;2022-12-18T08:38:45;-5.90;99.90
13659;DHT22;6902;52.158;11.574;2022-12-18T08:41:14;-5.90;99.90
13659;DHT22;6902;52.158;11.574;2022-12-18T08:43:41;-5.80;99.90
13659;DHT22;6902;52.158;11.574;2022-12-18T08:46:27;-5.80;99.90
13659;DHT22;6902;52.158;11.574;2022-12-18T08:48:58;-5.80;99.90
13659;DHT22;6902;52.158;11.574;2022-12-18T08:51:25;-5.80;99.90
13659;DHT22;6902;52.158;11.574;2022-12-18T08:53:52;-5.90;99.90
13659;DHT22;6902;52.158;11.574;2022-12-18T08:56:19;-5.80;99.90
13659;DHT22;6902;52.158;11.574;2022-12-18T08:58:46;-5.80;99.90
13659;DHT22;6902;52.158;11.574;2022-12-18T09:01:13;-5.70;99.90
13659;DHT22;6902;52.158;11.574;2022-12-18T09:03:41;-5.60;99.90
13659;DHT22;6902;52.158;11.574;2022-12-18T09:06:08;-5.50;99.90
13659;DHT22;6902;52.158;11.574;2022-12-18T09:08:36;-5.40;99.90
13659;DHT22;6902;52.158;11.574;2022-12-18T09:11:03;-5.40;99.90
13659;DHT22;6902;52.158;11.574;2022-12-18T09:13:30;-5.30;99.90
13659;DHT22;6902;52.158;11.574;2022-12-18T09:15:58;-5.20;99.90
13659;DHT22;6902;52.158;11.574;2022-12-18T09:18:25;-5.10;99.90
13659;DHT22;6902;52.158;11.574;2022-12-18T09:20:53;-5.10;99.90
13659;DHT22;6902;52.158;11.574;2022-12-18T09:23:20;-5.00;99.90
13659;DHT22;6902;52.158;11.574;2022-12-18T09:25:48;-5.00;99.90
13659;DHT22;6902;52.158;11.574;2022-12-18T09:28:16;-5.00;99.90
13659;DHT22;6902;52.158;11.574;2022-12-18T09:30:46;-5.00;99.90
13659;DHT22;6902;52.158;11.574;2022-12-18T09:33:15;-4.90;99.90
13659;DHT22;6902;52.158;11.574;2022-12-18T09:35:43;-4.90;99.90
13659;DHT22;6902;52.158;11.574;2022-12-18T09:38:13;-4.90;99.90
13659;DHT22;6902;52.158;11.574;2022-12-18T09:40:43;-5.00;99.90
13659;DHT22;6902;52.158;11.574;2022-12-18T09:43:15;-5.00;99.90
13659;DHT22;6902;52.158;11.574;2022-12-18T09:45:46;-5.10;99.90
13659;DHT22;6902;52.158;11.574;2022-12-18T09:48:19;-5.10;99.90
13659;DHT22;6902;52.158;11.574;2022-12-18T09:50:48;-5.00;99.90
13659;DHT22;6902;52.158;11.574;2022-12-18T09:53:22;-5.10;99.90
13659;DHT22;6902;52.158;11.574;2022-12-18T09:55:52;-5.00;99.90
13659;DHT22;6902;52.158;11.574;2022-12-18T09:58:26;-5.00;99.90
13659;DHT22;6902;52.158;11.574;2022-12-18T10:00:55;-5.00;99.90
13659;DHT22;6902;52.158;11.574;2022-12-18T10:03:22;-4.90;99.90
13659;DHT22;6902;52.158;11.574;2022-12-18T10:05:58;-4.90;99.90
13659;DHT22;6902;52.158;11.574;2022-12-18T10:08:36;-4.90;99.90
13659;DHT22;6902;52.158;11.574;2022-12-18T10:11:22;-4.90;99.90
13659;DHT22;6902;52.158;11.574;2022-12-18T10:13:56;-4.80;99.90
13659;DHT22;6902;52.158;11.574;2022-12-18T10:16:34;-4.70;99.90
13659;DHT22;6902;52.158;11.574;2022-12-18T10:19:20;-4.70;99.90
13659;DHT22;6902;52.158;11.574;2022-12-18T10:21:55;-4.70;99.90
13659;DHT22;6902;52.158;11.574;2022-12-18T10:24:31;-4.60;99.90
13659;DHT22;6902;52.158;11.574;2022-12-18T10:27:12;-4.60;99.90
13659;DHT22;6902;52.158;11.574;2022-12-18T10:29:41;-4.60;99.90
13659;DHT22;6902;52.158;11.574;2022-12-18T10:32:14;-4.50;99.90
13659;DHT22;6902;52.158;11.574;2022-12-18T10:34:45;-4.40;99.90
13659;DHT22;6902;52.158;11.574;2022-12-18T10:37:16;-4.30;99.90
13659;DHT22;6902;52.158;11.574;2022-12-18T10:39:45;-4.20;99.90
13659;DHT22;6902;52.158;11.574;2022-12-18T10:42:18;-4.10;99.90
13659;DHT22;6902;52.158;11.574;2022-12-18T10:44:45;-4.00;99.90
13659;DHT22;6902;52.158;11.574;2022-12-18T10:47:15;-4.00;99.90
13659;DHT22;6902;52.158;11.574;2022-12-18T10:49:49;-3.90;99.90
13659;DHT22;6902;52.158;11.574;2022-12-18T10:52:18;-3.80;99.90
13659;DHT22;6902;52.158;11.574;2022-12-18T10:54:49;-3.80;99.90
13659;DHT22;6902;52.158;11.574;2022-12-18T10:57:29;-3.80;99.90
13659;DHT22;6902;52.158;11.574;2022-12-18T10:59:58;-3.80;99.90
13659;DHT22;6902;52.158;11.574;2022-12-18T11:02:28;-3.70;99.90
13659;DHT22;6902;52.158;11.574;2022-12-18T11:04:59;-3.70;99.90
13659;DHT22;6902;52.158;11.574;2022-12-18T11:07:47;-3.70;99.90
13659;DHT22;6902;52.158;11.574;2022-12-18T11:10:18;-3.70;99.90
13659;DHT22;6902;52.158;11.574;2022-12-18T11:12:46;-3.70;99.90
13659;DHT22;6902;52.158;11.574;2022-12-18T11:15:19;-3.70;99.90
13659;DHT22;6902;52.158;11.574;2022-12-18T11:17:49;-3.70;99.90
13659;DHT22;6902;52.158;11.574;2022-12-18T11:20:29;-3.80;99.90
13659;DHT22;6902;52.158;11.574;2022-12-18T11:22:58;-3.80;99.90
13659;DHT22;6902;52.158;11.574;2022-12-18T11:25:29;-3.90;99.90
13659;DHT22;6902;52.158;11.574;2022-12-18T11:27:57;-4.00;99.90
13659;DHT22;6902;52.158;11.574;2022-12-18T11:30:27;-4.10;99.90
13659;DHT22;6902;52.158;11.574;2022-12-18T11:32:58;-4.20;99.90
13659;DHT22;6902;52.158;11.574;2022-12-18T11:35:35;-4.20;99.90
13659;DHT22;6902;52.158;11.574;2022-12-18T11:38:10;-4.20;99.90
13659;DHT22;6902;52.158;11.574;2022-12-18T11:40:42;-4.20;99.90
13659;DHT22;6902;52.158;11.574;2022-12-18T11:43:14;-4.30;99.90
13659;DHT22;6902;52.158;11.574;2022-12-18T11:45:48;-4.30;99.90
13659;DHT22;6902;52.158;11.574;2022-12-18T11:48:21;-4.30;99.90
13659;DHT22;6902;52.158;11.574;2022-12-18T11:50:51;-4.30;99.90
13659;DHT22;6902;52.158;11.574;2022-12-18T11:53:19;-4.20;99.90
13659;DHT22;6902;52.158;11.574;2022-12-18T11:55:56;-4.20;99.90
13659;DHT22;6902;52.158;11.574;2022-12-18T11:58:40;-4.20;99.90
13659;DHT22;6902;52.158;11.574;2022-12-18T12:01:16;-4.10;99.90
13659;DHT22;6902;52.158;11.574;2022-12-18T12:04:03;-4.10;99.90
13659;DHT22;6902;52.158;11.574;2022-12-18T12:06:39;-4.10;99.90
13659;DHT22;6902;52.158;11.574;2022-12-18T12:09:19;-4.10;99.90
13659;DHT22;6902;52.158;11.574;2022-12-18T12:11:58;-4.20;99.90
13659;DHT22;6902;52.158;11.574;2022-12-18T12:14:39;-4.20;99.90
13659;DHT22;6902;52.158;11.574;2022-12-18T12:17:13;-4.20;99.90
13659;DHT22;6902;52.158;11.574;2022-12-18T12:19:48;-4.30;99.90
13659;DHT22;6902;52.158;11.574;2022-12-18T12:22:24;-4.30;99.90
13659;DHT22;6902;52.158;11.574;2022-12-18T12:25:01;-4.30;99.90
13659;DHT22;6902;52.158;11.574;2022-12-18T12:27:39;-4.30;99.90
13659;DHT22;6902;52.158;11.574;2022-12-18T12:30:11;-4.30;99.90
13659;DHT22;6902;52.158;11.574;2022-12-18T12:33:02;-4.20;99.90
13659;DHT22;6902;52.158;11.574;2022-12-18T12:35:38;-4.20;99.90
13659;DHT22;6902;52.158;11.574;2022-12-18T12:38:12;-4.20;99.90
13659;DHT22;6902;52.158;11.574;2022-12-18T12:40:44;-4.10;99.90
13659;DHT22;6902;52.158;11.574;2022-12-18T12:43:21;-4.10;99.90
13659;DHT22;6902;52.158;11.574;2022-12-18T12:45:50;-4.10;99.90
13659;DHT22;6902;52.158;11.574;2022-12-18T12:48:27;-4.10;99.90
13659;DHT22;6902;52.158;11.574;2022-12-18T12:50:56;-4.10;99.90
13659;DHT22;6902;52.158;11.574;2022-12-18T12:53:27;-4.10;99.90
13659;DHT22;6902;52.158;11.574;2022-12-18T12:55:56;-4.00;99.90
13659;DHT22;6902;52.158;11.574;2022-12-18T12:58:31;-3.90;99.90
13659;DHT22;6902;52.158;11.574;2022-12-18T13:01:08;-3.70;99.90
13659;DHT22;6902;52.158;11.574;2022-12-18T13:03:45;-3.70;99.90
13659;DHT22;6902;52.158;11.574;2022-12-18T13:06:22;-3.60;99.90
13659;DHT22;6902;52.158;11.574;2022-12-18T13:08:55;-3.50;99.90
13659;DHT22;6902;52.158;11.574;2022-12-18T13:11:35;-3.50;99.90
13659;DHT22;6902;52.158;11.574;2022-12-18T13:14:28;-3.50;99.90
13659;DHT22;6902;52.158;11.574;2022-12-18T13:17:16;-3.50;99.90
13659;DHT22;6902;52.158;11.574;2022-12-18T13:19:43;-3.40;99.90
13659;DHT22;6902;52.158;11.574;2022-12-18T13:22:21;-3.40;99.90
13659;DHT22;6902;52.158;11.574;2022-12-18T13:24:49;-3.50;99.90
13659;DHT22;6902;52.158;11.574;2022-12-18T13:27:47;-3.40;99.90
13659;DHT22;6902;52.158;11.574;2022-12-18T13:33:51;-3.50;99.90
13659;DHT22;6902;52.158;11.574;2022-12-18T13:36:36;-3.60;99.90
13659;DHT22;6902;52.158;11.574;2022-12-18T13:42:31;-3.50;99.90
13659;DHT22;6902;52.158;11.574;2022-12-18T13:45:35;-3.50;99.90
13659;DHT22;6902;52.158;11.574;2022-12-18T13:48:03;-3.50;99.90
13659;DHT22;6902;52.158;11.574;2022-12-18T13:50:33;-3.60;99.90
13659;DHT22;6902;52.158;11.574;2022-12-18T13:53:03;-3.60;99.90
13659;DHT22;6902;52.158;11.574;2022-12-18T13:55:32;-3.60;99.90
13659;DHT22;6902;52.158;11.574;2022-12-18T13:58:03;-3.70;99.90
13659;DHT22;6902;52.158;11.574;2022-12-18T14:00:31;-3.70;99.90
13659;DHT22;6902;52.158;11.574;2022-12-18T14:02:59;-3.70;99.90
13659;DHT22;6902;52.158;11.574;2022-12-18T14:05:28;-3.80;99.90
13659;DHT22;6902;52.158;11.574;2022-12-18T14:08:01;-3.80;99.90
13659;DHT22;6902;52.158;11.574;2022-12-18T14:10:31;-3.80;99.90
13659;DHT22;6902;52.158;11.574;2022-12-18T14:13:03;-3.90;99.90
13659;DHT22;6902;52.158;11.574;2022-12-18T14:15:34;-3.90;99.90
13659;DHT22;6902;52.158;11.574;2022-12-18T14:18:09;-4.00;99.90
13659;DHT22;6902;52.158;11.574;2022-12-18T14:20:48;-4.00;99.90
13659;DHT22;6902;52.158;11.574;2022-12-18T14:23:28;-4.10;99.90
13659;DHT22;6902;52.158;11.574;2022-12-18T14:25:56;-4.10;99.90
13659;DHT22;6902;52.158;11.574;2022-12-18T14:28:23;-4.20;99.90
13659;DHT22;6902;52.158;11.574;2022-12-18T14:30:51;-4.20;99.90
13659;DHT22;6902;52.158;11.574;2022-12-18T14:33:21;-4.20;99.90
13659;DHT22;6902;52.158;11.574;2022-12-18T14:35:59;-4.30;99.90
13659;DHT22;6902;52.158;11.574;2022-12-18T14:38:31;-4.30;99.90
13659;DHT22;6902;52.158;11.574;2022-12-18T14:40:59;-4.30;99.90
13659;DHT22;6902;52.158;11.574;2022-12-18T14:43:28;-4.40;99.90
13659;DHT22;6902;52.158;11.574;2022-12-18T14:45:56;-4.40;99.90
13659;DHT22;6902;52.158;11.574;2022-12-18T14:48:35;-4.40;99.90
13659;DHT22;6902;52.158;11.574;2022-12-18T14:51:05;-4.40;99.90
13659;DHT22;6902;52.158;11.574;2022-12-18T14:53:36;-4.50;99.90
13659;DHT22;6902;52.158;11.574;2022-12-18T14:56:13;-4.40;99.90
13659;DHT22;6902;52.158;11.574;2022-12-18T14:58:45;-4.40;99.90
13659;DHT22;6902;52.158;11.574;2022-12-18T15:01:19;-4.50;99.90
13659;DHT22;6902;52.158;11.574;2022-12-18T15:03:46;-4.50;99.90
13659;DHT22;6902;52.158;11.574;2022-12-18T15:06:21;-4.50;99.90
13659;DHT22;6902;52.158;11.574;2022-12-18T15:08:52;-4.50;99.90
13659;DHT22;6902;52.158;11.574;2022-12-18T15:11:27;-4.50;99.90
13659;DHT22;6902;52.158;11.574;2022-12-18T15:13:57;-4.60;99.90
13659;DHT22;6902;52.158;11.574;2022-12-18T15:16:24;-4.60;99.90
13659;DHT22;6902;52.158;11.574;2022-12-18T15:18:52;-4.60;99.90
13659;DHT22;6902;52.158;11.574;2022-12-18T15:21:21;-4.60;99.90
13659;DHT22;6902;52.158;11.574;2022-12-18T15:23:50;-4.60;99.90
13659;DHT22;6902;52.158;11.574;2022-12-18T15:26:20;-4.60;99.90
13659;DHT22;6902;52.158;11.574;2022-12-18T15:28:48;-4.60;99.90
13659;DHT22;6902;52.158;11.574;2022-12-18T15:31:27;-4.60;99.90
13659;DHT22;6902;52.158;11.574;2022-12-18T15:34:10;-4.60;99.90
13659;DHT22;6902;52.158;11.574;2022-12-18T15:36:39;-4.60;99.90
13659;DHT22;6902;52.158;11.574;2022-12-18T15:39:06;-4.60;99.90
13659;DHT22;6902;52.158;11.574;2022-12-18T15:41:38;-4.60;99.90
13659;DHT22;6902;52.158;11.574;2022-12-18T15:44:22;-4.60;99.90
13659;DHT22;6902;52.158;11.574;2022-12-18T15:46:48;-4.70;99.90
13659;DHT22;6902;52.158;11.574;2022-12-18T15:49:15;-4.60;99.90
13659;DHT22;6902;52.158;11.574;2022-12-18T15:51:42;-4.60;99.90
13659;DHT22;6902;52.158;11.574;2022-12-18T15:54:13;-4.70;99.90
13659;DHT22;6902;52.158;11.574;2022-12-18T15:56:43;-4.70;99.90
13659;DHT22;6902;52.158;11.574;2022-12-18T15:59:27;-4.70;99.90
13659;DHT22;6902;52.158;11.574;2022-12-18T16:01:54;-4.70;99.90